Time;durP1;ratioP1;P1;durP2;ratioP2;P2;SDS_P1;SDS_P2;PMS_P1;PMS_P2;Temp;Humidity;BMP_temperature;BMP_pressure;BME280_temperature;BME280_humidity;BME280_pressure;Samples;Min_cycle;Max_cycle;Signal;HPM_P1;HPM_P2
2023/01/19 00:00:00;;;;;;;2.9;2.8;;;;;;;1.7;100.0;99900;;;;
2023/01/19 00:01:00;;;;;;;2.9;2.8;;;;;;;1.7;100.0;99900;;;;
2023/01/19 00:02:00;;;;;;;2.8;2.7;;;;;;;1.7;100.0;99890;;;;
2023/01/19 00:03:02;;;;;;;2.8;2.7;;;;;;;1.7;100.0;99890;;;;
2023/01/19 00:04:00;;;;;;;2.8;2.7;;;;;;;1.7;100.0;99890;;;;
2023/01/19 00:05:00;;;;;;;2.8;2.7;;;;;;;1.7;100.0;99890;;;;
2023/01/19 00:06:04;;;;;;;2.8;2.7;;;;;;;1.6;100.0;99890;;;;
2023/01/19 00:07:02;;;;;;;2.8;2.7;;;;;;;1.6;100.0;99890;;;;
2023/01/19 00:08:13;;;;;;;2.8;2.7;;;;;;;1.7;100.0;99890;;;;
2023/01/19 00:09:00;;;;;;;2.8;2.7;;;;;;;1.7;100.0;99890;;;;
2023/01/19 00:10:00;;;;;;;2.8;2.7;;;;;;;1.7;100.0;99880;;;;
2023/01/19 00:11:00;;;;;;;2.8;2.7;;;;;;;1.7;100.0;99880;;;;
2023/01/19 00:12:00;;;;;;;2.8;2.7;;;;;;;1.6;100.0;99880;;;;
2023/01/19 00:13:01;;;;;;;2.8;2.7;;;;;;;1.6;100.0;99880;;;;
2023/01/19 00:14:00;;;;;;;2.8;2.7;;;;;;;1.6;100.0;99880;;;;
2023/01/19 00:15:00;;;;;;;2.8;2.7;;;;;;;1.6;100.0;99880;;;;
2023/01/19 00:16:00;;;;;;;2.8;2.7;;;;;;;1.6;100.0;99880;;;;
2023/01/19 00:17:00;;;;;;;2.8;2.7;;;;;;;1.6;100.0;99880;;;;
2023/01/19 00:18:00;;;;;;;2.8;2.7;;;;;;;1.6;100.0;99880;;;;
2023/01/19 00:19:00;;;;;;;2.8;2.7;;;;;;;1.6;100.0;99880;;;;
2023/01/19 00:20:00;;;;;;;2.8;2.7;;;;;;;1.6;100.0;99880;;;;
2023/01/19 00:21:00;;;;;;;2.8;2.7;;;;;;;1.6;100.0;99880;;;;
2023/01/19 00:22:00;;;;;;;2.7;2.6;;;;;;;1.6;100.0;99880;;;;
2023/01/19 00:23:02;;;;;;;2.7;2.6;;;;;;;1.6;100.0;99880;;;;
2023/01/19 00:24:00;;;;;;;2.7;2.6;;;;;;;1.6;100.0;99880;;;;
2023/01/19 00:25:00;;;;;;;2.7;2.6;;;;;;;1.6;100.0;99880;;;;
2023/01/19 00:26:00;;;;;;;2.7;2.6;;;;;;;1.5;100.0;99890;;;;
2023/01/19 00:27:02;;;;;;;2.7;2.6;;;;;;;1.5;100.0;99890;;;;
2023/01/19 00:28:01;;;;;;;2.7;2.6;;;;;;;1.6;100.0;99890;;;;
2023/01/19 00:29:00;;;;;;;2.7;2.6;;;;;;;1.6;100.0;99890;;;;
2023/01/19 00:30:01;;;;;;;2.7;2.6;;;;;;;1.5;100.0;99890;;;;
2023/01/19 00:31:00;;;;;;;2.7;2.6;;;;;;;1.5;100.0;99890;;;;
2023/01/19 00:32:00;;;;;;;2.7;2.6;;;;;;;1.5;100.0;99900;;;;
2023/01/19 00:33:00;;;;;;;2.7;2.6;;;;;;;1.5;100.0;99900;;;;
2023/01/19 00:34:00;;;;;;;2.7;2.6;;;;;;;1.5;100.0;99900;;;;
2023/01/19 00:35:00;;;;;;;2.7;2.6;;;;;;;1.5;100.0;99900;;;;
2023/01/19 00:36:00;;;;;;;2.7;2.6;;;;;;;1.6;100.0;99900;;;;
2023/01/19 00:37:01;;;;;;;2.7;2.6;;;;;;;1.6;100.0;99900;;;;
2023/01/19 00:38:00;;;;;;;2.7;2.6;;;;;;;1.5;100.0;99890;;;;
2023/01/19 00:39:00;;;;;;;2.7;2.6;;;;;;;1.5;100.0;99890;;;;
2023/01/19 00:40:00;;;;;;;2.7;2.6;;;;;;;1.5;100.0;99890;;;;
2023/01/19 00:41:00;;;;;;;2.7;2.6;;;;;;;1.5;100.0;99890;;;;
2023/01/19 00:43:02;;;;;;;2.9;2.8;;;;;;;1.5;100.0;99900;;;;
2023/01/19 00:44:00;;;;;;;2.9;2.8;;;;;;;1.5;100.0;99900;;;;
2023/01/19 00:45:00;;;;;;;2.9;2.8;;;;;;;1.5;100.0;99900;;;;
2023/01/19 00:46:00;;;;;;;2.9;2.8;;;;;;;1.5;100.0;99900;;;;
2023/01/19 00:47:03;;;;;;;2.9;2.8;;;;;;;1.5;100.0;99900;;;;
2023/01/19 00:48:00;;;;;;;2.9;2.8;;;;;;;1.4;100.0;99900;;;;
2023/01/19 00:49:00;;;;;;;2.9;2.8;;;;;;;1.4;100.0;99900;;;;
2023/01/19 00:50:00;;;;;;;2.9;2.8;;;;;;;1.4;100.0;99890;;;;
2023/01/19 00:51:00;;;;;;;2.9;2.8;;;;;;;1.4;100.0;99890;;;;
2023/01/19 00:52:00;;;;;;;2.9;2.8;;;;;;;1.4;100.0;99900;;;;
2023/01/19 00:53:01;;;;;;;2.9;2.8;;;;;;;1.4;100.0;99900;;;;
2023/01/19 00:54:03;;;;;;;2.9;2.8;;;;;;;1.3;100.0;99900;;;;
2023/01/19 00:55:00;;;;;;;2.9;2.8;;;;;;;1.3;100.0;99900;;;;
2023/01/19 00:56:00;;;;;;;2.9;2.8;;;;;;;1.4;100.0;99890;;;;
2023/01/19 00:57:00;;;;;;;2.9;2.8;;;;;;;1.4;100.0;99890;;;;
2023/01/19 00:58:01;;;;;;;2.9;2.8;;;;;;;1.4;100.0;99890;;;;
2023/01/19 00:59:00;;;;;;;2.9;2.8;;;;;;;1.4;100.0;99890;;;;
2023/01/19 01:00:00;;;;;;;2.9;2.8;;;;;;;1.4;100.0;99890;;;;
2023/01/19 01:01:02;;;;;;;2.9;2.8;;;;;;;1.4;100.0;99890;;;;
2023/01/19 01:02:01;;;;;;;2.8;2.7;;;;;;;1.4;100.0;99880;;;;
2023/01/19 01:03:01;;;;;;;2.8;2.7;;;;;;;1.4;100.0;99880;;;;
2023/01/19 01:04:00;;;;;;;2.8;2.7;;;;;;;1.4;100.0;99880;;;;
2023/01/19 01:05:01;;;;;;;2.8;2.7;;;;;;;1.4;100.0;99880;;;;
2023/01/19 01:06:02;;;;;;;2.8;2.7;;;;;;;1.5;100.0;99890;;;;
2023/01/19 01:07:00;;;;;;;2.8;2.7;;;;;;;1.5;100.0;99890;;;;
2023/01/19 01:08:00;;;;;;;2.8;2.7;;;;;;;1.4;100.0;99890;;;;
2023/01/19 01:09:10;;;;;;;2.8;2.7;;;;;;;1.4;100.0;99890;;;;
2023/01/19 01:10:00;;;;;;;2.8;2.7;;;;;;;1.4;100.0;99890;;;;
2023/01/19 01:11:00;;;;;;;2.8;2.7;;;;;;;1.4;100.0;99890;;;;
2023/01/19 01:12:00;;;;;;;2.8;2.7;;;;;;;1.5;100.0;99880;;;;
2023/01/19 01:13:10;;;;;;;2.8;2.7;;;;;;;1.5;100.0;99890;;;;
2023/01/19 01:14:00;;;;;;;2.8;2.7;;;;;;;1.5;100.0;99890;;;;
2023/01/19 01:15:00;;;;;;;2.8;2.7;;;;;;;1.5;100.0;99890;;;;
2023/01/19 01:16:00;;;;;;;2.8;2.7;;;;;;;1.4;100.0;99880;;;;
2023/01/19 01:17:00;;;;;;;2.8;2.7;;;;;;;1.4;100.0;99880;;;;
2023/01/19 01:18:00;;;;;;;2.8;2.7;;;;;;;1.5;100.0;99880;;;;
2023/01/19 01:19:00;;;;;;;2.8;2.7;;;;;;;1.5;100.0;99880;;;;
2023/01/19 01:20:00;;;;;;;2.8;2.7;;;;;;;1.4;100.0;99890;;;;
2023/01/19 01:21:01;;;;;;;2.8;2.7;;;;;;;1.4;100.0;99890;;;;
2023/01/19 01:22:00;;;;;;;3.0;2.9;;;;;;;1.4;100.0;99900;;;;
2023/01/19 01:23:01;;;;;;;3.0;2.9;;;;;;;1.4;100.0;99900;;;;
2023/01/19 01:24:01;;;;;;;3.0;2.9;;;;;;;1.5;100.0;99910;;;;
2023/01/19 01:25:00;;;;;;;3.0;2.9;;;;;;;1.5;100.0;99910;;;;
2023/01/19 01:26:01;;;;;;;3.0;2.9;;;;;;;1.5;100.0;99910;;;;
2023/01/19 01:27:00;;;;;;;3.0;2.9;;;;;;;1.5;100.0;99910;;;;
2023/01/19 01:28:01;;;;;;;3.0;2.9;;;;;;;1.5;100.0;99910;;;;
2023/01/19 01:29:00;;;;;;;3.0;2.9;;;;;;;1.5;100.0;99910;;;;
2023/01/19 01:30:00;;;;;;;3.0;2.9;;;;;;;1.5;100.0;99910;;;;
2023/01/19 01:31:00;;;;;;;3.0;2.9;;;;;;;1.5;100.0;99910;;;;
2023/01/19 01:32:00;;;;;;;3.0;2.9;;;;;;;1.5;100.0;99910;;;;
2023/01/19 01:33:01;;;;;;;3.0;2.9;;;;;;;1.5;100.0;99910;;;;
2023/01/19 01:34:00;;;;;;;3.0;2.9;;;;;;;1.6;100.0;99910;;;;
2023/01/19 01:35:00;;;;;;;3.0;2.9;;;;;;;1.6;100.0;99910;;;;
2023/01/19 01:36:00;;;;;;;3.0;2.9;;;;;;;1.5;100.0;99900;;;;
2023/01/19 01:37:00;;;;;;;3.0;2.9;;;;;;;1.5;100.0;99900;;;;
2023/01/19 01:38:00;;;;;;;3.0;2.9;;;;;;;1.6;100.0;99900;;;;
2023/01/19 01:39:00;;;;;;;3.0;2.9;;;;;;;1.6;100.0;99900;;;;
2023/01/19 01:40:00;;;;;;;3.0;2.9;;;;;;;1.6;100.0;99890;;;;
2023/01/19 01:41:00;;;;;;;3.0;2.9;;;;;;;1.6;100.0;99890;;;;
2023/01/19 01:42:00;;;;;;;3.1;3.0;;;;;;;1.6;100.0;99900;;;;
2023/01/19 01:43:02;;;;;;;3.1;3.0;;;;;;;1.6;100.0;99900;;;;
2023/01/19 01:44:01;;;;;;;3.1;3.0;;;;;;;1.5;100.0;99900;;;;
2023/01/19 01:45:04;;;;;;;3.1;3.0;;;;;;;1.5;100.0;99900;;;;
2023/01/19 01:46:00;;;;;;;3.1;3.0;;;;;;;1.5;100.0;99890;;;;
2023/01/19 01:47:00;;;;;;;3.1;3.0;;;;;;;1.5;100.0;99890;;;;
2023/01/19 01:48:03;;;;;;;3.1;3.0;;;;;;;1.5;100.0;99900;;;;
2023/01/19 01:49:06;;;;;;;3.1;3.0;;;;;;;1.5;100.0;99900;;;;
2023/01/19 01:50:11;;;;;;;3.1;3.0;;;;;;;1.5;100.0;99900;;;;
2023/01/19 01:52:00;;;;;;;3.1;3.0;;;;;;;1.5;100.0;99890;;;;
2023/01/19 01:53:08;;;;;;;3.1;3.0;;;;;;;1.5;100.0;99900;;;;
2023/01/19 01:54:05;;;;;;;3.1;3.0;;;;;;;1.5;100.0;99900;;;;
2023/01/19 01:55:01;;;;;;;3.1;3.0;;;;;;;1.5;100.0;99900;;;;
2023/01/19 01:56:03;;;;;;;3.1;3.0;;;;;;;1.5;100.0;99900;;;;
2023/01/19 01:57:01;;;;;;;3.1;3.0;;;;;;;1.5;100.0;99900;;;;
2023/01/19 01:58:02;;;;;;;3.1;3.0;;;;;;;1.5;100.0;99900;;;;
2023/01/19 01:59:03;;;;;;;3.1;3.0;;;;;;;1.5;100.0;99900;;;;
2023/01/19 02:00:01;;;;;;;3.1;3.0;;;;;;;1.6;100.0;99900;;;;
2023/01/19 02:03:01;;;;;;;3.0;2.9;;;;;;;1.6;100.0;99900;;;;
2023/01/19 02:04:00;;;;;;;3.0;2.9;;;;;;;1.4;100.0;99900;;;;
2023/01/19 02:05:04;;;;;;;3.0;2.9;;;;;;;1.4;100.0;99900;;;;
2023/01/19 02:06:03;;;;;;;3.0;2.9;;;;;;;1.4;100.0;99900;;;;
2023/01/19 02:14:03;;;;;;;3.0;2.9;;;;;;;1.3;100.0;99900;;;;
2023/01/19 02:15:00;;;;;;;3.0;2.9;;;;;;;1.3;100.0;99900;;;;
2023/01/19 02:16:02;;;;;;;3.0;2.9;;;;;;;1.2;100.0;99910;;;;
2023/01/19 02:17:00;;;;;;;3.0;2.9;;;;;;;1.2;100.0;99910;;;;
2023/01/19 02:18:00;;;;;;;3.0;2.9;;;;;;;1.2;100.0;99910;;;;
2023/01/19 02:19:00;;;;;;;3.0;2.9;;;;;;;1.2;100.0;99910;;;;
2023/01/19 02:20:00;;;;;;;3.0;2.9;;;;;;;1.2;100.0;99900;;;;
2023/01/19 02:21:10;;;;;;;3.0;2.9;;;;;;;1.2;100.0;99910;;;;
2023/01/19 02:22:03;;;;;;;3.0;2.9;;;;;;;1.2;100.0;99910;;;;
2023/01/19 02:23:03;;;;;;;3.0;2.9;;;;;;;1.2;100.0;99910;;;;
2023/01/19 02:24:01;;;;;;;3.0;2.9;;;;;;;1.2;100.0;99910;;;;
2023/01/19 02:25:02;;;;;;;3.0;2.9;;;;;;;1.2;100.0;99910;;;;
2023/01/19 02:26:01;;;;;;;3.0;2.9;;;;;;;1.2;100.0;99900;;;;
2023/01/19 02:27:01;;;;;;;3.0;2.9;;;;;;;1.2;100.0;99900;;;;
2023/01/19 02:28:01;;;;;;;3.0;2.9;;;;;;;1.2;100.0;99900;;;;
2023/01/19 02:29:04;;;;;;;3.0;2.9;;;;;;;1.1;100.0;99910;;;;
2023/01/19 02:30:02;;;;;;;3.0;2.9;;;;;;;1.1;100.0;99910;;;;
2023/01/19 02:31:00;;;;;;;3.0;2.9;;;;;;;1.1;100.0;99910;;;;
2023/01/19 02:32:01;;;;;;;3.0;2.9;;;;;;;1.1;100.0;99910;;;;
2023/01/19 02:33:01;;;;;;;3.0;2.9;;;;;;;1.1;100.0;99910;;;;
2023/01/19 02:34:01;;;;;;;3.0;2.9;;;;;;;1.0;100.0;99910;;;;
2023/01/19 02:35:01;;;;;;;3.0;2.9;;;;;;;1.0;100.0;99910;;;;
2023/01/19 02:36:01;;;;;;;3.0;2.9;;;;;;;0.9;100.0;99910;;;;
2023/01/19 02:37:05;;;;;;;3.0;2.9;;;;;;;0.9;100.0;99910;;;;
2023/01/19 02:38:02;;;;;;;3.0;2.9;;;;;;;0.9;100.0;99920;;;;
2023/01/19 02:39:01;;;;;;;3.0;2.9;;;;;;;0.9;100.0;99920;;;;
2023/01/19 02:40:01;;;;;;;3.0;2.9;;;;;;;0.9;100.0;99920;;;;
2023/01/19 02:41:02;;;;;;;3.0;2.9;;;;;;;0.9;100.0;99920;;;;
2023/01/19 02:42:04;;;;;;;3.0;2.9;;;;;;;1.0;100.0;99920;;;;
2023/01/19 02:43:02;;;;;;;3.0;2.9;;;;;;;1.0;100.0;99920;;;;
2023/01/19 02:44:00;;;;;;;3.0;2.9;;;;;;;1.0;100.0;99920;;;;
2023/01/19 02:45:05;;;;;;;3.0;2.9;;;;;;;1.0;100.0;99920;;;;
2023/01/19 02:46:00;;;;;;;3.0;2.9;;;;;;;1.1;100.0;99930;;;;
2023/01/19 02:47:00;;;;;;;3.0;2.9;;;;;;;1.1;100.0;99930;;;;
2023/01/19 02:48:01;;;;;;;3.0;2.9;;;;;;;1.0;100.0;99930;;;;
2023/01/19 02:49:00;;;;;;;3.0;2.9;;;;;;;1.0;100.0;99930;;;;
2023/01/19 02:50:00;;;;;;;3.0;2.9;;;;;;;1.0;100.0;99930;;;;
2023/01/19 02:51:03;;;;;;;3.0;2.9;;;;;;;1.0;100.0;99930;;;;
2023/01/19 02:52:00;;;;;;;3.0;2.9;;;;;;;1.0;100.0;99920;;;;
2023/01/19 02:53:11;;;;;;;3.0;2.9;;;;;;;0.9;100.0;99930;;;;
2023/01/19 02:54:03;;;;;;;3.0;2.9;;;;;;;0.9;100.0;99930;;;;
2023/01/19 02:55:00;;;;;;;3.0;2.9;;;;;;;0.9;100.0;99930;;;;
2023/01/19 02:56:09;;;;;;;3.0;2.9;;;;;;;0.9;100.0;99930;;;;
2023/01/19 02:57:10;;;;;;;3.0;2.9;;;;;;;0.9;100.0;99930;;;;
2023/01/19 02:58:09;;;;;;;3.0;2.9;;;;;;;0.9;100.0;99930;;;;
2023/01/19 02:59:10;;;;;;;3.0;2.9;;;;;;;0.8;100.0;99930;;;;
2023/01/19 03:00:10;;;;;;;3.0;2.9;;;;;;;0.8;100.0;99930;;;;
2023/01/19 03:01:11;;;;;;;3.3;3.2;;;;;;;0.8;100.0;99930;;;;
2023/01/19 03:02:10;;;;;;;3.3;3.2;;;;;;;0.8;100.0;99930;;;;
2023/01/19 03:03:10;;;;;;;3.3;3.2;;;;;;;0.9;100.0;99930;;;;
2023/01/19 03:04:10;;;;;;;3.3;3.2;;;;;;;0.9;100.0;99930;;;;
2023/01/19 03:05:05;;;;;;;3.3;3.2;;;;;;;0.9;100.0;99930;;;;
2023/01/19 03:06:07;;;;;;;3.3;3.2;;;;;;;0.9;100.0;99930;;;;
2023/01/19 03:07:07;;;;;;;3.3;3.2;;;;;;;0.8;100.0;99940;;;;
2023/01/19 03:08:06;;;;;;;3.3;3.2;;;;;;;0.8;100.0;99940;;;;
2023/01/19 03:09:03;;;;;;;3.3;3.2;;;;;;;0.8;100.0;99940;;;;
2023/01/19 03:10:00;;;;;;;3.3;3.2;;;;;;;0.8;100.0;99940;;;;
2023/01/19 03:11:01;;;;;;;3.3;3.2;;;;;;;0.8;100.0;99940;;;;
2023/01/19 03:12:05;;;;;;;3.3;3.2;;;;;;;0.8;100.0;99940;;;;
2023/01/19 03:13:07;;;;;;;3.3;3.2;;;;;;;0.9;100.0;99940;;;;
2023/01/19 03:14:07;;;;;;;3.3;3.2;;;;;;;0.9;100.0;99940;;;;
2023/01/19 03:15:06;;;;;;;3.3;3.2;;;;;;;0.8;100.0;99940;;;;
2023/01/19 03:16:00;;;;;;;3.3;3.2;;;;;;;0.8;100.0;99940;;;;
2023/01/19 03:17:01;;;;;;;3.3;3.2;;;;;;;0.8;100.0;99940;;;;
2023/01/19 03:18:01;;;;;;;3.3;3.2;;;;;;;0.8;100.0;99950;;;;
2023/01/19 03:19:04;;;;;;;3.3;3.2;;;;;;;0.9;100.0;99950;;;;
2023/01/19 03:20:01;;;;;;;3.3;3.2;;;;;;;0.9;100.0;99950;;;;
2023/01/19 03:21:02;;;;;;;3.3;3.2;;;;;;;0.9;100.0;99950;;;;
2023/01/19 03:22:02;;;;;;;3.3;3.2;;;;;;;0.8;100.0;99950;;;;
2023/01/19 03:23:03;;;;;;;3.3;3.2;;;;;;;0.8;100.0;99950;;;;
2023/01/19 03:24:02;;;;;;;3.3;3.2;;;;;;;0.8;100.0;99950;;;;
2023/01/19 03:25:00;;;;;;;3.3;3.2;;;;;;;0.8;100.0;99950;;;;
2023/01/19 03:26:01;;;;;;;3.3;3.2;;;;;;;0.8;100.0;99960;;;;
2023/01/19 03:27:05;;;;;;;3.3;3.2;;;;;;;0.8;100.0;99960;;;;
2023/01/19 03:28:00;;;;;;;3.3;3.2;;;;;;;0.8;100.0;99960;;;;
2023/01/19 03:29:02;;;;;;;3.3;3.2;;;;;;;0.8;100.0;99960;;;;
2023/01/19 03:30:04;;;;;;;3.3;3.2;;;;;;;0.8;100.0;99970;;;;
2023/01/19 03:31:05;;;;;;;3.3;3.2;;;;;;;0.8;100.0;99970;;;;
2023/01/19 03:32:02;;;;;;;3.3;3.2;;;;;;;0.8;100.0;99970;;;;
2023/01/19 03:33:03;;;;;;;3.3;3.2;;;;;;;0.8;100.0;99970;;;;
2023/01/19 03:34:02;;;;;;;3.3;3.2;;;;;;;0.7;100.0;99970;;;;
2023/01/19 03:35:02;;;;;;;3.3;3.2;;;;;;;0.7;100.0;99970;;;;
2023/01/19 03:36:04;;;;;;;3.3;3.2;;;;;;;0.8;100.0;99980;;;;
2023/01/19 03:37:02;;;;;;;3.3;3.2;;;;;;;0.8;100.0;99980;;;;
2023/01/19 03:38:02;;;;;;;3.3;3.2;;;;;;;0.7;100.0;99990;;;;
2023/01/19 03:39:02;;;;;;;3.3;3.2;;;;;;;0.7;100.0;99990;;;;
2023/01/19 03:40:00;;;;;;;3.3;3.2;;;;;;;0.6;100.0;99980;;;;
2023/01/19 03:41:01;;;;;;;3.0;2.9;;;;;;;0.6;100.0;99980;;;;
2023/01/19 03:42:03;;;;;;;3.0;2.9;;;;;;;0.6;100.0;99990;;;;
2023/01/19 03:43:02;;;;;;;3.0;2.9;;;;;;;0.6;100.0;99990;;;;
2023/01/19 03:44:01;;;;;;;3.0;2.9;;;;;;;0.6;100.0;99990;;;;
2023/01/19 03:45:00;;;;;;;3.0;2.9;;;;;;;0.6;100.0;99990;;;;
2023/01/19 03:46:01;;;;;;;3.0;2.9;;;;;;;0.5;100.0;100000;;;;
2023/01/19 03:47:01;;;;;;;3.0;2.9;;;;;;;0.5;100.0;100000;;;;
2023/01/19 03:48:00;;;;;;;3.0;2.9;;;;;;;0.5;100.0;100000;;;;
2023/01/19 03:49:00;;;;;;;3.0;2.9;;;;;;;0.5;100.0;100000;;;;
2023/01/19 03:50:02;;;;;;;3.0;2.9;;;;;;;0.6;100.0;100000;;;;
2023/01/19 03:51:03;;;;;;;3.0;2.9;;;;;;;0.6;100.0;100000;;;;
2023/01/19 03:52:00;;;;;;;3.0;2.9;;;;;;;0.5;100.0;99990;;;;
2023/01/19 03:53:09;;;;;;;3.0;2.9;;;;;;;0.5;100.0;99990;;;;
2023/01/19 03:54:00;;;;;;;3.0;2.9;;;;;;;0.5;100.0;99990;;;;
2023/01/19 03:55:01;;;;;;;3.0;2.9;;;;;;;0.5;100.0;99990;;;;
2023/01/19 03:56:00;;;;;;;3.0;2.9;;;;;;;0.5;100.0;99990;;;;
2023/01/19 03:57:00;;;;;;;3.0;2.9;;;;;;;0.5;100.0;99990;;;;
2023/01/19 03:58:00;;;;;;;3.0;2.9;;;;;;;0.5;100.0;99990;;;;
2023/01/19 03:59:00;;;;;;;3.0;2.9;;;;;;;0.5;100.0;99990;;;;
2023/01/19 04:00:00;;;;;;;3.0;2.9;;;;;;;0.4;100.0;100000;;;;
2023/01/19 04:01:00;;;;;;;3.3;3.2;;;;;;;0.4;100.0;100000;;;;
2023/01/19 04:02:00;;;;;;;3.3;3.2;;;;;;;0.5;100.0;100000;;;;
2023/01/19 04:03:01;;;;;;;3.3;3.2;;;;;;;0.5;100.0;100000;;;;
2023/01/19 04:04:00;;;;;;;3.3;3.2;;;;;;;0.5;100.0;100010;;;;
2023/01/19 04:05:00;;;;;;;3.3;3.2;;;;;;;0.5;100.0;100010;;;;
2023/01/19 04:06:01;;;;;;;3.3;3.2;;;;;;;0.5;100.0;100020;;;;
2023/01/19 04:07:00;;;;;;;3.3;3.2;;;;;;;0.5;100.0;100020;;;;
2023/01/19 04:08:00;;;;;;;3.3;3.2;;;;;;;0.5;100.0;100010;;;;
2023/01/19 04:09:00;;;;;;;3.3;3.2;;;;;;;0.5;100.0;100010;;;;
2023/01/19 04:10:00;;;;;;;3.3;3.2;;;;;;;0.5;100.0;100010;;;;
2023/01/19 04:11:00;;;;;;;3.3;3.2;;;;;;;0.5;100.0;100010;;;;
2023/01/19 04:12:00;;;;;;;3.3;3.2;;;;;;;0.5;100.0;100010;;;;
2023/01/19 04:13:01;;;;;;;3.3;3.2;;;;;;;0.5;100.0;100010;;;;
2023/01/19 04:14:00;;;;;;;3.3;3.2;;;;;;;0.5;100.0;100010;;;;
2023/01/19 04:15:00;;;;;;;3.3;3.2;;;;;;;0.5;100.0;100010;;;;
2023/01/19 04:16:01;;;;;;;3.3;3.2;;;;;;;0.4;100.0;100020;;;;
2023/01/19 04:17:00;;;;;;;3.3;3.2;;;;;;;0.4;100.0;100020;;;;
2023/01/19 04:18:00;;;;;;;3.3;3.2;;;;;;;0.4;100.0;100010;;;;
2023/01/19 04:19:00;;;;;;;3.3;3.2;;;;;;;0.4;100.0;100010;;;;
2023/01/19 04:20:00;;;;;;;3.3;3.2;;;;;;;0.4;100.0;100010;;;;
2023/01/19 04:21:01;;;;;;;3.2;3.1;;;;;;;0.4;100.0;100010;;;;
2023/01/19 04:22:00;;;;;;;3.2;3.1;;;;;;;0.4;100.0;100010;;;;
2023/01/19 04:23:01;;;;;;;3.2;3.1;;;;;;;0.4;100.0;100010;;;;
2023/01/19 04:24:00;;;;;;;3.2;3.1;;;;;;;0.4;100.0;100010;;;;
2023/01/19 04:25:00;;;;;;;3.2;3.1;;;;;;;0.4;100.0;100010;;;;
2023/01/19 04:26:01;;;;;;;3.2;3.1;;;;;;;0.4;100.0;100010;;;;
2023/01/19 04:27:00;;;;;;;3.2;3.1;;;;;;;0.4;100.0;100010;;;;
2023/01/19 04:28:00;;;;;;;3.2;3.1;;;;;;;0.4;100.0;100010;;;;
2023/01/19 04:29:00;;;;;;;3.2;3.1;;;;;;;0.4;100.0;100010;;;;
2023/01/19 04:30:02;;;;;;;3.2;3.1;;;;;;;0.5;100.0;100020;;;;
2023/01/19 04:31:00;;;;;;;3.2;3.1;;;;;;;0.5;100.0;100020;;;;
2023/01/19 04:32:00;;;;;;;3.2;3.1;;;;;;;0.4;100.0;100030;;;;
2023/01/19 04:33:01;;;;;;;3.2;3.1;;;;;;;0.4;100.0;100030;;;;
2023/01/19 04:34:01;;;;;;;3.2;3.1;;;;;;;0.5;100.0;100030;;;;
2023/01/19 04:35:01;;;;;;;3.2;3.1;;;;;;;0.5;100.0;100030;;;;
2023/01/19 04:36:01;;;;;;;3.2;3.1;;;;;;;0.4;100.0;100040;;;;
2023/01/19 04:37:00;;;;;;;3.2;3.1;;;;;;;0.4;100.0;100040;;;;
2023/01/19 04:38:00;;;;;;;3.2;3.1;;;;;;;0.3;100.0;100040;;;;
2023/01/19 04:39:00;;;;;;;3.2;3.1;;;;;;;0.3;100.0;100040;;;;
2023/01/19 04:40:00;;;;;;;3.2;3.1;;;;;;;0.4;100.0;100030;;;;
2023/01/19 04:41:00;;;;;;;3.3;3.2;;;;;;;0.4;100.0;100030;;;;
2023/01/19 04:42:00;;;;;;;3.3;3.2;;;;;;;0.4;100.0;100020;;;;
2023/01/19 04:43:01;;;;;;;3.3;3.2;;;;;;;0.4;100.0;100020;;;;
2023/01/19 04:44:00;;;;;;;3.3;3.2;;;;;;;0.4;100.0;100020;;;;
2023/01/19 04:45:00;;;;;;;3.3;3.2;;;;;;;0.4;100.0;100020;;;;
2023/01/19 04:46:01;;;;;;;3.3;3.2;;;;;;;0.4;100.0;100010;;;;
2023/01/19 04:47:01;;;;;;;3.3;3.2;;;;;;;0.4;100.0;100010;;;;
2023/01/19 04:48:00;;;;;;;3.3;3.2;;;;;;;0.4;100.0;100000;;;;
2023/01/19 04:49:00;;;;;;;3.3;3.2;;;;;;;0.4;100.0;100000;;;;
2023/01/19 04:50:00;;;;;;;3.3;3.2;;;;;;;0.4;100.0;100000;;;;
2023/01/19 04:51:00;;;;;;;3.3;3.2;;;;;;;0.4;100.0;100000;;;;
2023/01/19 04:52:00;;;;;;;3.3;3.2;;;;;;;0.3;100.0;100000;;;;
2023/01/19 04:53:01;;;;;;;3.3;3.2;;;;;;;0.3;100.0;100000;;;;
2023/01/19 04:54:01;;;;;;;3.3;3.2;;;;;;;0.4;100.0;99990;;;;
2023/01/19 04:55:01;;;;;;;3.3;3.2;;;;;;;0.4;100.0;99990;;;;
2023/01/19 04:56:00;;;;;;;3.3;3.2;;;;;;;0.4;100.0;99990;;;;
2023/01/19 04:57:00;;;;;;;3.3;3.2;;;;;;;0.4;100.0;99990;;;;
2023/01/19 04:58:00;;;;;;;3.3;3.2;;;;;;;0.4;100.0;99980;;;;
2023/01/19 04:59:00;;;;;;;3.3;3.2;;;;;;;0.4;100.0;99980;;;;
2023/01/19 05:00:00;;;;;;;3.3;3.2;;;;;;;0.4;100.0;99970;;;;
2023/01/19 05:01:00;;;;;;;3.1;3.0;;;;;;;0.4;100.0;99970;;;;
2023/01/19 05:02:00;;;;;;;3.1;3.0;;;;;;;0.5;100.0;99970;;;;
2023/01/19 05:03:01;;;;;;;3.1;3.0;;;;;;;0.5;100.0;99970;;;;
2023/01/19 05:04:02;;;;;;;3.1;3.0;;;;;;;0.5;100.0;99980;;;;
2023/01/19 05:05:01;;;;;;;3.1;3.0;;;;;;;0.5;100.0;99980;;;;
2023/01/19 05:06:00;;;;;;;3.1;3.0;;;;;;;0.4;100.0;99970;;;;
2023/01/19 05:07:00;;;;;;;3.1;3.0;;;;;;;0.4;100.0;99970;;;;
2023/01/19 05:08:00;;;;;;;3.1;3.0;;;;;;;0.5;100.0;99970;;;;
2023/01/19 05:09:00;;;;;;;3.1;3.0;;;;;;;0.5;100.0;99970;;;;
2023/01/19 05:10:00;;;;;;;3.1;3.0;;;;;;;0.6;100.0;99970;;;;
2023/01/19 05:11:00;;;;;;;3.1;3.0;;;;;;;0.6;100.0;99970;;;;
2023/01/19 05:12:00;;;;;;;3.1;3.0;;;;;;;0.5;100.0;99980;;;;
2023/01/19 05:13:01;;;;;;;3.1;3.0;;;;;;;0.5;100.0;99980;;;;
2023/01/19 05:14:00;;;;;;;3.1;3.0;;;;;;;0.5;100.0;99980;;;;
2023/01/19 05:15:00;;;;;;;3.1;3.0;;;;;;;0.5;100.0;99980;;;;
2023/01/19 05:16:01;;;;;;;3.1;3.0;;;;;;;0.5;100.0;99990;;;;
2023/01/19 05:17:02;;;;;;;3.1;3.0;;;;;;;0.5;100.0;99990;;;;
2023/01/19 05:18:00;;;;;;;3.1;3.0;;;;;;;0.5;100.0;99990;;;;
2023/01/19 05:19:00;;;;;;;3.1;3.0;;;;;;;0.5;100.0;99990;;;;
2023/01/19 05:20:00;;;;;;;3.1;3.0;;;;;;;0.5;100.0;99990;;;;
2023/01/19 05:21:03;;;;;;;3.1;3.0;;;;;;;0.5;100.0;99990;;;;
2023/01/19 05:22:02;;;;;;;3.1;3.0;;;;;;;0.6;100.0;99990;;;;
2023/01/19 05:23:01;;;;;;;3.1;3.0;;;;;;;0.6;100.0;99990;;;;
2023/01/19 05:24:00;;;;;;;3.1;3.0;;;;;;;0.6;100.0;99990;;;;
2023/01/19 05:25:00;;;;;;;3.1;3.0;;;;;;;0.6;100.0;99990;;;;
2023/01/19 05:26:00;;;;;;;3.1;3.0;;;;;;;0.6;100.0;99990;;;;
2023/01/19 05:27:00;;;;;;;3.1;3.0;;;;;;;0.6;100.0;99990;;;;
2023/01/19 05:28:01;;;;;;;3.1;3.0;;;;;;;0.6;100.0;99990;;;;
2023/01/19 05:29:00;;;;;;;3.1;3.0;;;;;;;0.6;100.0;99990;;;;
2023/01/19 05:30:00;;;;;;;3.1;3.0;;;;;;;0.6;100.0;99990;;;;
2023/01/19 05:31:00;;;;;;;3.1;3.0;;;;;;;0.6;100.0;99990;;;;
2023/01/19 05:32:00;;;;;;;3.1;3.0;;;;;;;0.6;100.0;100000;;;;
2023/01/19 05:33:01;;;;;;;3.1;3.0;;;;;;;0.6;100.0;100000;;;;
2023/01/19 05:34:00;;;;;;;3.1;3.0;;;;;;;0.6;100.0;100000;;;;
2023/01/19 05:35:00;;;;;;;3.1;3.0;;;;;;;0.6;100.0;100000;;;;
2023/01/19 05:36:00;;;;;;;3.1;3.0;;;;;;;0.6;100.0;100010;;;;
2023/01/19 05:37:00;;;;;;;3.1;3.0;;;;;;;0.6;100.0;100010;;;;
2023/01/19 05:38:00;;;;;;;3.1;3.0;;;;;;;0.5;100.0;100010;;;;
2023/01/19 05:39:00;;;;;;;3.1;3.0;;;;;;;0.5;100.0;100010;;;;
2023/01/19 05:40:00;;;;;;;3.1;3.0;;;;;;;0.6;100.0;100020;;;;
2023/01/19 05:41:00;;;;;;;3.2;3.1;;;;;;;0.6;100.0;100020;;;;
2023/01/19 05:42:00;;;;;;;3.2;3.1;;;;;;;0.5;100.0;100030;;;;
2023/01/19 05:43:03;;;;;;;3.2;3.1;;;;;;;0.5;100.0;100030;;;;
2023/01/19 05:44:00;;;;;;;3.2;3.1;;;;;;;0.6;100.0;100030;;;;
2023/01/19 05:45:00;;;;;;;3.2;3.1;;;;;;;0.6;100.0;100030;;;;
2023/01/19 05:46:02;;;;;;;3.2;3.1;;;;;;;0.5;100.0;100030;;;;
2023/01/19 05:47:00;;;;;;;3.2;3.1;;;;;;;0.5;100.0;100030;;;;
2023/01/19 05:48:00;;;;;;;3.2;3.1;;;;;;;0.6;100.0;100030;;;;
2023/01/19 05:49:03;;;;;;;3.2;3.1;;;;;;;0.6;100.0;100030;;;;
2023/01/19 05:50:00;;;;;;;3.2;3.1;;;;;;;0.6;100.0;100030;;;;
2023/01/19 05:51:00;;;;;;;3.2;3.1;;;;;;;0.6;100.0;100030;;;;
2023/01/19 05:52:00;;;;;;;3.2;3.1;;;;;;;0.5;100.0;100030;;;;
2023/01/19 05:53:01;;;;;;;3.2;3.1;;;;;;;0.5;100.0;100030;;;;
2023/01/19 05:54:01;;;;;;;3.2;3.1;;;;;;;0.6;100.0;100030;;;;
2023/01/19 05:55:00;;;;;;;3.2;3.1;;;;;;;0.6;100.0;100030;;;;
2023/01/19 05:56:01;;;;;;;3.2;3.1;;;;;;;0.5;100.0;100040;;;;
2023/01/19 05:57:01;;;;;;;3.2;3.1;;;;;;;0.5;100.0;100040;;;;
2023/01/19 05:58:00;;;;;;;3.2;3.1;;;;;;;0.6;100.0;100040;;;;
2023/01/19 05:59:01;;;;;;;3.2;3.1;;;;;;;0.6;100.0;100040;;;;
2023/01/19 06:00:00;;;;;;;3.2;3.1;;;;;;;0.5;100.0;100040;;;;
2023/01/19 06:01:01;;;;;;;4.2;4.0;;;;;;;0.5;100.0;100040;;;;
2023/01/19 06:02:00;;;;;;;4.2;4.0;;;;;;;0.4;100.0;100040;;;;
2023/01/19 06:03:01;;;;;;;4.2;4.0;;;;;;;0.4;100.0;100040;;;;
2023/01/19 06:04:00;;;;;;;4.2;4.0;;;;;;;0.5;100.0;100050;;;;
2023/01/19 06:05:01;;;;;;;4.2;4.0;;;;;;;0.5;100.0;100050;;;;
2023/01/19 06:06:00;;;;;;;4.2;4.0;;;;;;;0.6;100.0;100050;;;;
2023/01/19 06:07:01;;;;;;;4.2;4.0;;;;;;;0.6;100.0;100050;;;;
2023/01/19 06:08:00;;;;;;;4.2;4.0;;;;;;;0.6;100.0;100050;;;;
2023/01/19 06:09:00;;;;;;;4.2;4.0;;;;;;;0.6;100.0;100050;;;;
2023/01/19 06:10:00;;;;;;;4.2;4.0;;;;;;;0.6;100.0;100050;;;;
2023/01/19 06:11:00;;;;;;;4.2;4.0;;;;;;;0.6;100.0;100050;;;;
2023/01/19 06:12:00;;;;;;;4.2;4.0;;;;;;;0.5;100.0;100060;;;;
2023/01/19 06:13:01;;;;;;;4.2;4.0;;;;;;;0.5;100.0;100060;;;;
2023/01/19 06:14:00;;;;;;;4.2;4.0;;;;;;;0.5;100.0;100060;;;;
2023/01/19 06:15:00;;;;;;;4.2;4.0;;;;;;;0.5;100.0;100060;;;;
2023/01/19 06:16:01;;;;;;;4.2;4.0;;;;;;;0.6;100.0;100060;;;;
2023/01/19 06:17:00;;;;;;;4.2;4.0;;;;;;;0.6;100.0;100060;;;;
2023/01/19 06:18:00;;;;;;;4.2;4.0;;;;;;;0.6;100.0;100060;;;;
2023/01/19 06:19:00;;;;;;;4.2;4.0;;;;;;;0.6;100.0;100060;;;;
2023/01/19 06:20:00;;;;;;;3.1;3.0;;;;;;;0.6;100.0;100050;;;;
2023/01/19 06:21:02;;;;;;;3.1;3.0;;;;;;;0.6;100.0;100050;;;;
2023/01/19 06:22:00;;;;;;;3.1;3.0;;;;;;;0.7;100.0;100060;;;;
2023/01/19 06:23:01;;;;;;;3.1;3.0;;;;;;;0.7;100.0;100060;;;;
2023/01/19 06:24:00;;;;;;;3.1;3.0;;;;;;;0.6;100.0;100060;;;;
2023/01/19 06:25:00;;;;;;;3.1;3.0;;;;;;;0.6;100.0;100060;;;;
2023/01/19 06:26:01;;;;;;;3.1;3.0;;;;;;;0.7;100.0;100070;;;;
2023/01/19 06:27:00;;;;;;;3.1;3.0;;;;;;;0.7;100.0;100070;;;;
2023/01/19 06:28:00;;;;;;;3.1;3.0;;;;;;;0.6;100.0;100070;;;;
2023/01/19 06:29:00;;;;;;;3.1;3.0;;;;;;;0.6;100.0;100070;;;;
2023/01/19 06:30:00;;;;;;;3.1;3.0;;;;;;;0.7;100.0;100070;;;;
2023/01/19 06:31:00;;;;;;;3.1;3.0;;;;;;;0.7;100.0;100070;;;;
2023/01/19 06:32:00;;;;;;;3.1;3.0;;;;;;;0.7;100.0;100070;;;;
2023/01/19 06:33:01;;;;;;;3.1;3.0;;;;;;;0.7;100.0;100070;;;;
2023/01/19 06:34:00;;;;;;;3.1;3.0;;;;;;;0.7;100.0;100080;;;;
2023/01/19 06:35:00;;;;;;;3.1;3.0;;;;;;;0.7;100.0;100080;;;;
2023/01/19 06:36:00;;;;;;;3.1;3.0;;;;;;;0.7;100.0;100090;;;;
2023/01/19 06:37:00;;;;;;;3.1;3.0;;;;;;;0.7;100.0;100090;;;;
2023/01/19 06:38:00;;;;;;;3.1;3.0;;;;;;;0.7;100.0;100090;;;;
2023/01/19 06:39:04;;;;;;;3.1;3.0;;;;;;;0.7;100.0;100090;;;;
2023/01/19 06:40:00;;;;;;;3.3;3.2;;;;;;;0.6;100.0;100090;;;;
2023/01/19 06:41:02;;;;;;;3.3;3.2;;;;;;;0.6;100.0;100090;;;;
2023/01/19 06:42:00;;;;;;;3.3;3.2;;;;;;;0.7;100.0;100090;;;;
2023/01/19 06:43:01;;;;;;;3.3;3.2;;;;;;;0.7;100.0;100090;;;;
2023/01/19 06:44:00;;;;;;;3.3;3.2;;;;;;;0.7;100.0;100100;;;;